Time;durP1;ratioP1;P1;durP2;ratioP2;P2;SDS_P1;SDS_P2;PMS_P1;PMS_P2;Temp;Humidity;BMP_temperature;BMP_pressure;BME280_temperature;BME280_humidity;BME280_pressure;Samples;Min_cycle;Max_cycle;Signal;HPM_P1;HPM_P2
2022/06/09 00:00:41;;;;;;;0.00;0.00;;;;;;;13.95;61.58;100333.41;7367938;19;20742;-63
2022/06/09 00:03:13;;;;;;;0.00;0.00;;;;;;;13.93;60.71;100329.97;7367047;19;20338;-63
2022/06/09 00:05:39;;;;;;;0.00;0.00;;;;;;;13.91;61.28;100337.94;7366495;19;20011;-63
2022/06/09 00:08:06;;;;;;;0.00;0.00;;;;;;;13.85;61.45;100332.09;7367606;19;20098;-62
2022/06/09 00:10:36;;;;;;;0.10;0.10;;;;;;;13.90;60.85;100345.88;7366910;19;20014;-62
2022/06/09 00:13:02;;;;;;;0.00;0.00;;;;;;;13.86;61.15;100342.53;7367516;19;20027;-62
2022/06/09 00:15:27;;;;;;;0.00;0.00;;;;;;;13.84;61.73;100346.13;7366504;19;20798;-63
2022/06/09 00:17:53;;;;;;;0.00;0.00;;;;;;;13.83;61.48;100339.16;7367343;19;20011;-63
2022/06/09 00:20:19;;;;;;;0.00;0.00;;;;;;;13.81;61.48;100351.50;7367850;19;20010;-63
2022/06/09 00:22:45;;;;;;;0.00;0.00;;;;;;;13.78;61.12;100357.72;7368175;19;20014;-63
2022/06/09 00:25:11;;;;;;;0.00;0.00;;;;;;;13.76;61.51;100365.66;7367032;19;20026;-61
2022/06/09 00:27:37;;;;;;;0.00;0.00;;;;;;;13.74;61.53;100359.63;7365168;19;20006;-63
2022/06/09 00:30:04;;;;;;;0.00;0.00;;;;;;;13.69;62.02;100358.97;7366413;19;20013;-63
2022/06/09 00:32:30;;;;;;;;;;;;;;;13.70;59.03;100371.19;7366551;19;20006;-62
2022/06/09 00:34:55;;;;;;;0.00;0.00;;;;;;;13.67;61.82;100366.03;7366471;19;22236;-62
2022/06/09 00:37:21;;;;;;;0.00;0.00;;;;;;;13.61;61.51;100371.53;7368439;19;20014;-63
2022/06/09 00:39:46;;;;;;;0.00;0.00;;;;;;;13.52;61.84;100356.16;7367869;19;20517;-63
2022/06/09 00:42:11;;;;;;;0.00;0.00;;;;;;;13.57;61.39;100371.72;7364837;19;20003;-63
2022/06/09 00:44:37;;;;;;;0.00;0.00;;;;;;;13.58;62.04;100382.16;7367758;19;20652;-63
2022/06/09 00:47:26;;;;;;;0.00;0.00;;;;;;;13.56;61.77;100384.00;7367271;19;20034;-62
2022/06/09 00:49:57;;;;;;;0.00;0.00;;;;;;;13.46;62.00;100377.41;7368568;19;20011;-62
2022/06/09 00:52:26;;;;;;;0.00;0.00;;;;;;;13.50;62.20;100385.09;7365323;19;20627;-63
2022/06/09 00:54:56;;;;;;;0.00;0.00;;;;;;;13.48;62.45;100389.56;7363223;19;20011;-62
2022/06/09 00:57:27;;;;;;;0.00;0.00;;;;;;;13.32;62.65;100367.44;7364182;19;20023;-62
2022/06/09 00:59:58;;;;;;;0.00;0.00;;;;;;;13.44;62.73;100389.75;7366380;19;20031;-63
2022/06/09 01:02:25;;;;;;;0.00;0.00;;;;;;;13.45;62.97;100386.19;7364011;19;20578;-62
2022/06/09 01:04:53;;;;;;;0.00;0.00;;;;;;;13.39;62.19;100386.44;7366807;19;20034;-61
2022/06/09 01:07:24;;;;;;;0.00;0.00;;;;;;;13.45;63.14;100387.03;7363751;19;20462;-63
2022/06/09 01:09:49;;;;;;;0.00;0.00;;;;;;;13.45;62.67;100388.81;7366410;19;20038;-63
2022/06/09 01:12:27;;;;;;;0.00;0.00;;;;;;;13.47;62.18;100386.97;7364888;19;20010;-63
2022/06/09 01:15:00;;;;;;;0.00;0.00;;;;;;;13.46;62.60;100382.66;7365942;19;20033;-62
2022/06/09 01:17:40;;;;;;;0.00;0.00;;;;;;;13.46;61.61;100383.50;7367327;19;20007;-63
2022/06/09 01:20:31;;;;;;;0.00;0.00;;;;;;;13.47;60.66;100389.59;7367431;19;20015;-63
2022/06/09 01:23:18;;;;;;;0.00;0.00;;;;;;;13.46;62.00;100387.91;7266972;19;2004619;-63
2022/06/09 01:26:21;;;;;;;0.00;0.00;;;;;;;13.46;61.72;100382.66;7368103;19;20577;-63
2022/06/09 01:28:52;;;;;;;0.00;0.00;;;;;;;13.41;63.33;100380.22;7265846;19;2005046;-62
2022/06/09 01:31:59;;;;;;;0.00;0.00;;;;;;;13.44;62.47;100384.50;7367328;19;20017;-63
2022/06/09 01:34:56;;;;;;;0.00;0.00;;;;;;;13.43;61.46;100388.88;7264906;19;2004488;-61
2022/06/09 01:37:27;;;;;;;0.00;0.00;;;;;;;13.42;63.63;100391.53;7263123;19;2004602;-60
2022/06/09 01:39:58;;;;;;;0.00;0.00;;;;;;;13.41;63.33;100384.59;7367260;19;20006;-62
2022/06/09 01:42:28;;;;;;;0.00;0.00;;;;;;;13.39;63.90;100391.69;7367398;19;20003;-61
2022/06/09 01:45:00;;;;;;;0.00;0.00;;;;;;;13.39;63.71;100397.78;7368400;19;20019;-63
2022/06/09 01:47:33;;;;;;;0.00;0.00;;;;;;;13.35;64.25;100379.59;7370749;19;20642;-61
2022/06/09 01:50:06;;;;;;;0.00;0.00;;;;;;;13.39;63.63;100386.44;7367578;19;20009;-63
2022/06/09 01:52:33;;;;;;;0.00;0.00;;;;;;;13.37;64.23;100377.75;7366369;19;20009;-62
2022/06/09 01:55:01;;;;;;;0.00;0.00;;;;;;;13.38;64.36;100369.84;7366059;19;20022;-62
2022/06/09 01:57:31;;;;;;;0.00;0.00;;;;;;;13.32;63.77;100353.47;7365441;19;20014;-63
2022/06/09 02:00:09;;;;;;;0.00;0.00;;;;;;;13.41;63.98;100363.63;7357549;19;20002;-63
2022/06/09 02:02:41;;;;;;;0.00;0.00;;;;;;;13.41;64.58;100361.00;7367096;19;20006;-62
2022/06/09 02:05:12;;;;;;;0.00;0.00;;;;;;;13.31;63.93;100333.44;7364631;19;20110;-61
2022/06/09 02:07:41;;;;;;;0.00;0.00;;;;;;;13.44;64.35;100363.50;7368502;19;20006;-63
2022/06/09 02:10:21;;;;;;;0.00;0.00;;;;;;;13.44;63.24;100347.78;7366356;19;20013;-62
2022/06/09 02:12:48;;;;;;;0.00;0.00;;;;;;;13.39;64.35;100339.22;7365924;19;20071;-62
2022/06/09 02:15:20;;;;;;;0.00;0.00;;;;;;;13.46;64.10;100361.66;7365288;19;21211;-63
2022/06/09 02:17:48;;;;;;;0.00;0.00;;;;;;;13.46;64.59;100366.91;7366213;19;20006;-63
2022/06/09 02:20:16;;;;;;;0.00;0.00;;;;;;;13.37;64.32;100356.78;7364742;19;20030;-63
2022/06/09 02:22:41;;;;;;;0.00;0.00;;;;;;;13.46;64.34;100372.16;7367154;19;20012;-62
2022/06/09 02:25:07;;;;;;;0.00;0.00;;;;;;;13.46;64.69;100372.16;7363369;19;20010;-64
2022/06/09 02:27:33;;;;;;;0.00;0.00;;;;;;;13.46;64.36;100364.28;7361775;19;20006;-62
2022/06/09 02:29:58;;;;;;;0.00;0.00;;;;;;;13.45;64.96;100357.34;7367234;19;20002;-63
2022/06/09 02:32:24;;;;;;;0.00;0.00;;;;;;;13.44;64.67;100358.25;7365596;19;20425;-63
2022/06/09 02:34:49;;;;;;;0.00;0.00;;;;;;;13.42;65.30;100360.91;7365762;19;20003;-62
2022/06/09 02:37:15;;;;;;;0.00;0.00;;;;;;;13.41;64.84;100363.63;7365175;19;20601;-62
2022/06/09 02:39:40;;;;;;;0.00;0.00;;;;;;;13.41;64.87;100358.38;7366657;19;20002;-63
2022/06/09 02:42:07;;;;;;;0.00;0.00;;;;;;;13.38;64.57;100363.72;7365597;19;20508;-63
2022/06/09 02:44:33;;;;;;;0.00;0.00;;;;;;;13.34;64.73;100363.00;7366677;19;20006;-63
2022/06/09 02:46:59;;;;;;;0.00;0.00;;;;;;;13.35;64.96;100371.75;7365627;19;20014;-63
2022/06/09 02:49:24;;;;;;;0.05;0.05;;;;;;;13.36;64.95;100381.31;7365939;19;20361;-62
2022/06/09 02:51:49;;;;;;;0.00;0.00;;;;;;;13.33;64.63;100376.16;7361528;19;20102;-64
2022/06/09 02:54:15;;;;;;;0.00;0.00;;;;;;;13.31;65.49;100370.13;7366029;19;20017;-63
2022/06/09 02:56:42;;;;;;;0.00;0.00;;;;;;;13.30;65.34;100376.31;7363000;19;20030;-63
2022/06/09 02:59:08;;;;;;;0.00;0.00;;;;;;;13.28;65.42;100385.97;7365181;19;20476;-61
2022/06/09 03:01:33;;;;;;;0.00;0.00;;;;;;;13.24;64.81;100407.09;7365153;19;20003;-63
2022/06/09 03:03:58;;;;;;;0.00;0.00;;;;;;;13.24;65.40;100394.00;7358897;19;20003;-62
2022/06/09 03:06:24;;;;;;;0.00;0.00;;;;;;;13.24;64.30;100409.72;7358680;19;20006;-61
2022/06/09 03:08:50;;;;;;;0.00;0.00;;;;;;;13.23;64.99;100402.78;7367792;19;20029;-62
2022/06/09 03:11:16;;;;;;;0.00;0.00;;;;;;;13.14;65.32;100387.34;7362156;19;20017;-63
2022/06/09 03:13:42;;;;;;;0.00;0.00;;;;;;;13.22;65.68;100402.81;7365329;19;20102;-63
2022/06/09 03:16:10;;;;;;;0.00;0.00;;;;;;;13.22;65.72;100387.94;7364068;19;19998;-63
2022/06/09 03:18:36;;;;;;;0.00;0.00;;;;;;;13.21;65.74;100386.22;7365431;19;20015;-63
2022/06/09 03:21:03;;;;;;;0.00;0.00;;;;;;;13.18;65.06;100367.97;7344801;19;20006;-62
2022/06/09 03:23:29;;;;;;;0.00;0.00;;;;;;;13.23;66.09;100381.78;7357195;19;20086;-62
2022/06/09 03:25:55;;;;;;;0.05;0.05;;;;;;;13.27;65.54;100381.66;7357366;19;21031;-63
2022/06/09 03:28:20;;;;;;;0.00;0.00;;;;;;;13.28;65.69;100389.50;7359214;19;20022;-62
2022/06/09 03:30:45;;;;;;;0.00;0.00;;;;;;;13.23;65.86;100376.56;7360318;19;20010;-62
2022/06/09 03:33:11;;;;;;;0.00;0.00;;;;;;;13.23;66.10;100371.31;7359505;19;20018;-63
2022/06/09 03:35:37;;;;;;;0.00;0.00;;;;;;;13.36;65.81;100386.56;7359115;19;20014;-63
2022/06/09 03:38:04;;;;;;;0.00;0.00;;;;;;;13.39;65.77;100389.06;7359315;19;20074;-63
2022/06/09 03:40:31;;;;;;;0.00;0.00;;;;;;;13.42;66.10;100378.44;7361578;19;20018;-63
2022/06/09 03:42:57;;;;;;;0.00;0.00;;;;;;;13.45;66.24;100389.66;7355318;19;20002;-62
2022/06/09 03:45:23;;;;;;;0.00;0.00;;;;;;;13.48;66.04;100391.31;7359641;19;20702;-62
2022/06/09 03:47:49;;;;;;;0.00;0.00;;;;;;;13.53;64.95;100396.38;7360636;19;20007;-60
2022/06/09 03:50:20;;;;;;;0.00;0.00;;;;;;;13.56;65.62;100388.38;7360799;19;20016;-62
2022/06/09 03:52:46;;;;;;;0.10;0.10;;;;;;;13.58;65.67;100381.28;7361478;19;20346;-63
2022/06/09 03:55:12;;;;;;;0.00;0.00;;;;;;;13.62;65.34;100389.00;7361960;19;20006;-63
2022/06/09 03:57:37;;;;;;;0.00;0.00;;;;;;;13.64;66.13;100400.28;7360163;19;20014;-63
2022/06/09 04:00:06;;;;;;;0.00;0.00;;;;;;;13.68;65.28;100393.97;7359495;19;20042;-62
2022/06/09 04:02:31;;;;;;;0.00;0.00;;;;;;;13.69;65.66;100387.00;7363645;19;20021;-62
2022/06/09 04:04:58;;;;;;;0.00;0.00;;;;;;;13.73;65.41;100392.03;7367273;19;19999;-61
2022/06/09 04:07:23;;;;;;;0.00;0.00;;;;;;;13.76;65.59;100377.94;7370319;19;20003;-63
2022/06/09 04:09:48;;;;;;;0.00;0.00;;;;;;;13.80;65.16;100397.91;7368309;19;20049;-62
2022/06/09 04:12:14;;;;;;;0.00;0.00;;;;;;;13.81;65.41;100393.50;7368174;19;20847;-63
2022/06/09 04:14:39;;;;;;;0.00;0.00;;;;;;;13.84;65.68;100394.25;7367666;19;20090;-62
2022/06/09 04:17:05;;;;;;;0.00;0.00;;;;;;;13.88;65.79;100402.81;7368633;19;20392;-62
2022/06/09 04:19:31;;;;;;;0.03;0.03;;;;;;;13.87;65.40;100393.25;7365841;19;20026;-63
2022/06/09 04:21:56;;;;;;;0.05;0.05;;;;;;;13.87;65.51;100388.84;7365765;19;20509;-62
2022/06/09 04:24:22;;;;;;;0.00;0.00;;;;;;;13.95;65.58;100386.78;7366311;19;20010;-61
2022/06/09 04:26:47;;;;;;;0.00;0.00;;;;;;;13.99;65.17;100392.75;7366869;19;20362;-62
2022/06/09 04:29:13;;;;;;;0.00;0.00;;;;;;;14.00;65.25;100391.81;7367839;19;20014;-61
2022/06/09 04:31:40;;;;;;;0.00;0.00;;;;;;;14.04;65.02;100401.28;7366423;19;20017;-61
2022/06/09 04:34:06;;;;;;;0.05;0.05;;;;;;;14.03;65.31;100403.03;7368186;19;20002;-63
2022/06/09 04:36:32;;;;;;;0.00;0.00;;;;;;;13.98;65.20;100396.28;7367169;19;20740;-62
2022/06/09 04:38:57;;;;;;;0.00;0.00;;;;;;;14.10;65.35;100415.94;7368597;19;20002;-62
2022/06/09 04:41:23;;;;;;;0.00;0.00;;;;;;;14.12;65.72;100425.44;7364691;19;20069;-62
2022/06/09 04:43:49;;;;;;;0.00;0.00;;;;;;;14.05;65.40;100403.00;7368787;19;20742;-63
2022/06/09 04:46:18;;;;;;;0.00;0.00;;;;;;;14.07;65.23;100400.28;7366494;19;20010;-63
2022/06/09 04:48:44;;;;;;;0.03;0.03;;;;;;;14.19;65.07;100431.28;7366960;19;21068;-63
2022/06/09 04:51:12;;;;;;;0.00;0.00;;;;;;;14.24;64.98;100450.31;7364938;19;20070;-63
2022/06/09 04:53:40;;;;;;;0.00;0.00;;;;;;;14.25;64.91;100426.66;7365557;19;20769;-62
2022/06/09 04:56:06;;;;;;;0.03;0.03;;;;;;;14.27;64.98;100430.03;7367415;19;20458;-63
2022/06/09 04:58:32;;;;;;;0.00;0.00;;;;;;;14.24;64.71;100432.81;7367132;19;20030;-61
2022/06/09 05:00:57;;;;;;;0.00;0.00;;;;;;;14.33;64.83;100456.97;7366416;19;20010;-63
2022/06/09 05:03:23;;;;;;;0.00;0.00;;;;;;;14.36;64.96;100460.34;7367216;19;20062;-63
2022/06/09 05:05:49;;;;;;;0.00;0.00;;;;;;;14.41;65.08;100462.78;7366993;19;20025;-63
2022/06/09 05:08:15;;;;;;;0.00;0.00;;;;;;;14.40;65.30;100450.56;7365479;19;20002;-63
2022/06/09 05:10:42;;;;;;;0.00;0.00;;;;;;;14.50;64.83;100465.03;7368419;19;21502;-63
2022/06/09 05:13:09;;;;;;;0.00;0.00;;;;;;;14.56;64.46;100462.16;7365329;19;20105;-62
2022/06/09 05:15:48;;;;;;;0.00;0.00;;;;;;;14.63;64.30;100474.09;7364542;19;20815;-61
2022/06/09 05:18:13;;;;;;;0.00;0.00;;;;;;;14.66;64.84;100460.84;7365468;19;20066;-62
2022/06/09 05:20:39;;;;;;;0.00;0.00;;;;;;;14.74;64.48;100461.34;7366006;19;22220;-63
2022/06/09 05:23:04;;;;;;;0.00;0.00;;;;;;;14.81;64.60;100468.97;7365682;19;20014;-62
2022/06/09 05:25:30;;;;;;;0.00;0.00;;;;;;;14.88;63.76;100468.63;7366500;19;20537;-62
2022/06/09 05:27:55;;;;;;;0.00;0.00;;;;;;;14.94;64.02;100462.22;7367017;19;20014;-62
2022/06/09 05:30:24;;;;;;;0.00;0.00;;;;;;;15.01;63.93;100445.28;7365694;19;20018;-62
2022/06/09 05:32:50;;;;;;;0.00;0.00;;;;;;;14.93;63.46;100418.47;7365236;19;20093;-63
2022/06/09 05:35:16;;;;;;;0.00;0.00;;;;;;;15.08;63.59;100437.97;7366291;19;20023;-63
2022/06/09 05:45:58;;;;;;;0.00;0.00;;;;;;;15.14;63.86;100425.38;7365869;19;20445;-61
2022/06/09 05:48:24;;;;;;;0.00;0.00;;;;;;;15.11;64.46;100428.16;7367524;19;20010;-62
2022/06/09 05:50:51;;;;;;;0.00;0.00;;;;;;;15.15;65.15;100427.06;7365156;19;20017;-62
2022/06/09 05:53:16;;;;;;;0.10;0.10;;;;;;;15.12;65.96;100432.50;7364249;19;20030;-62
2022/06/09 05:55:42;;;;;;;0.00;0.00;;;;;;;15.11;64.97;100443.94;7363086;19;20110;-63
2022/06/09 05:58:07;;;;;;;0.00;0.00;;;;;;;15.06;66.50;100438.03;7360944;19;20034;-61
2022/06/09 06:00:33;;;;;;;0.00;0.00;;;;;;;15.01;67.20;100432.97;7368817;19;20786;-63
2022/06/09 06:02:58;;;;;;;0.00;0.00;;;;;;;14.91;67.46;100415.06;7366729;19;20021;-63
2022/06/09 06:08:07;;;;;;;0.00;0.00;;;;;;;14.85;67.73;100442.47;7368002;19;20044;-62
2022/06/09 06:10:33;;;;;;;0.05;0.05;;;;;;;14.81;67.85;100445.31;7367801;19;22432;-63
2022/06/09 06:12:59;;;;;;;0.00;0.00;;;;;;;14.75;68.41;100451.66;7366289;19;20011;-63
2022/06/09 06:15:24;;;;;;;0.00;0.00;;;;;;;14.74;68.61;100449.97;7367930;19;20043;-62
2022/06/09 06:17:53;;;;;;;0.00;0.00;;;;;;;14.71;68.87;100447.50;7367008;19;20025;-63
2022/06/09 06:20:19;;;;;;;0.00;0.00;;;;;;;14.66;69.16;100447.69;7364866;19;20017;-63
2022/06/09 06:22:44;;;;;;;0.00;0.00;;;;;;;14.64;68.44;100436.38;7367550;19;20014;-63
2022/06/09 06:25:10;;;;;;;0.00;0.00;;;;;;;14.61;69.49;100441.78;7364647;19;20458;-63
2022/06/09 06:27:35;;;;;;;0.00;0.00;;;;;;;14.56;70.46;100441.13;7363677;19;20006;-63
2022/06/09 06:30:01;;;;;;;0.00;0.00;;;;;;;14.51;69.63;100449.22;7364155;19;20026;-63
2022/06/09 06:32:26;;;;;;;0.00;0.00;;;;;;;14.41;68.77;100436.50;7363765;19;20066;-64
2022/06/09 06:34:51;;;;;;;0.00;0.00;;;;;;;14.39;70.13;100443.56;7366456;19;20627;-63
2022/06/09 06:37:17;;;;;;;0.03;0.03;;;;;;;14.30;70.73;100444.00;7362570;19;20010;-63
2022/06/09 06:39:42;;;;;;;0.00;0.00;;;;;;;14.30;70.43;100444.00;7364424;19;20039;-62
2022/06/09 06:42:08;;;;;;;0.00;0.00;;;;;;;14.24;70.05;100443.31;7359884;19;20018;-63
2022/06/09 06:44:33;;;;;;;0.00;0.00;;;;;;;14.23;70.46;100449.47;7363037;19;20023;-59
2022/06/09 06:46:58;;;;;;;0.00;0.00;;;;;;;14.21;70.13;100446.06;7355953;19;20010;-62
2022/06/09 06:49:24;;;;;;;0.00;0.00;;;;;;;14.19;70.93;100442.66;7360298;19;20794;-63
2022/06/09 06:51:49;;;;;;;0.00;0.00;;;;;;;14.18;70.98;100454.06;7358635;19;20014;-63
2022/06/09 06:54:15;;;;;;;0.00;0.00;;;;;;;14.18;71.74;100446.19;7358477;19;20018;-63
2022/06/09 06:56:40;;;;;;;0.00;0.00;;;;;;;14.21;70.80;100440.81;7355331;19;20002;-63
2022/06/09 06:59:06;;;;;;;0.00;0.00;;;;;;;14.23;70.51;100440.75;7360558;19;20050;-63
2022/06/09 07:01:31;;;;;;;0.00;0.00;;;;;;;14.24;71.40;100445.06;7362983;19;20687;-63
2022/06/09 07:03:57;;;;;;;0.00;0.00;;;;;;;14.25;71.32;100445.03;7364098;19;20002;-63
2022/06/09 07:06:23;;;;;;;0.00;0.00;;;;;;;14.28;70.91;100437.00;7362269;19;20489;-63
2022/06/09 07:08:48;;;;;;;0.00;0.00;;;;;;;14.27;71.98;100440.56;7360663;19;20006;-63
2022/06/09 07:11:14;;;;;;;0.00;0.00;;;;;;;14.31;72.66;100440.44;7358263;19;20006;-64
2022/06/09 07:13:39;;;;;;;0.00;0.00;;;;;;;14.21;71.60;100425.06;7361268;19;20092;-62
2022/06/09 07:16:07;;;;;;;0.00;0.00;;;;;;;14.26;71.55;100423.09;7357230;19;20470;-63
2022/06/09 07:18:35;;;;;;;0.00;0.00;;;;;;;14.40;72.67;100440.06;7362826;19;20065;-63
2022/06/09 07:21:03;;;;;;;0.00;0.00;;;;;;;14.43;71.43;100445.16;7361383;19;20007;-63
2022/06/09 07:23:29;;;;;;;0.00;0.00;;;;;;;14.45;71.81;100446.81;7362811;19;20018;-63
2022/06/09 07:25:56;;;;;;;0.08;0.08;;;;;;;14.46;71.59;100451.13;7363783;19;20003;-63
2022/06/09 07:28:23;;;;;;;0.00;0.00;;;;;;;14.48;70.96;100436.19;7363075;19;20073;-63
2022/06/09 07:30:48;;;;;;;0.00;0.00;;;;;;;14.47;71.12;100442.38;7358950;19;20132;-64
2022/06/09 07:33:15;;;;;;;0.00;0.00;;;;;;;14.45;72.24;100438.09;7363056;19;20003;-64
2022/06/09 07:35:41;;;;;;;0.00;0.00;;;;;;;14.34;71.90;100421.91;7362218;19;20010;-63
2022/06/09 07:38:10;;;;;;;0.00;0.00;;;;;;;14.40;71.22;100440.06;7364296;19;20044;-63
2022/06/09 07:40:38;;;;;;;0.00;0.00;;;;;;;14.36;72.21;100441.09;7368258;19;20010;-64
2022/06/09 07:43:03;;;;;;;0.00;0.00;;;;;;;14.28;72.91;100447.50;7368529;19;20056;-63
2022/06/09 07:45:30;;;;;;;0.00;0.00;;;;;;;14.26;72.70;100440.63;7367862;19;20511;-64
2022/06/09 07:47:56;;;;;;;0.00;0.00;;;;;;;14.25;73.52;100437.16;7367377;19;20030;-63
2022/06/09 07:50:22;;;;;;;0.00;0.00;;;;;;;14.25;73.31;100441.56;7366012;19;20042;-64
2022/06/09 07:52:47;;;;;;;0.00;0.00;;;;;;;14.24;73.84;100430.19;7367695;19;19999;-64
2022/06/09 07:55:16;;;;;;;0.00;0.00;;;;;;;14.26;72.42;100425.72;7368488;19;20006;-63
2022/06/09 07:57:43;;;;;;;0.00;0.00;;;;;;;14.23;73.99;100427.59;7356722;19;20465;-63
2022/06/09 08:00:11;;;;;;;0.00;0.00;;;;;;;14.06;73.97;100393.34;7367434;19;20022;-63
2022/06/09 08:02:36;;;;;;;0.00;0.00;;;;;;;14.22;74.46;100416.25;7367111;19;20042;-64
2022/06/09 08:05:03;;;;;;;0.00;0.00;;;;;;;14.24;74.61;100419.69;7369207;19;20011;-62
2022/06/09 08:07:28;;;;;;;0.00;0.00;;;;;;;14.26;74.86;100407.34;7358005;19;20018;-63
2022/06/09 08:09:54;;;;;;;0.00;0.00;;;;;;;14.28;75.68;100405.47;7368997;19;20085;-62
2022/06/09 08:12:20;;;;;;;0.00;0.00;;;;;;;14.18;75.89;100383.16;7366805;19;20021;-62
2022/06/09 08:14:45;;;;;;;0.00;0.00;;;;;;;14.27;75.89;100387.16;7369915;19;20006;-62
2022/06/09 08:17:11;;;;;;;0.00;0.00;;;;;;;14.43;75.67;100403.13;7367330;19;20029;-62
2022/06/09 08:19:37;;;;;;;0.08;0.08;;;;;;;14.49;75.69;100405.50;7369942;19;20019;-62
2022/06/09 08:22:02;;;;;;;0.00;0.00;;;;;;;14.50;76.30;100391.47;7366829;19;20014;-62
2022/06/09 08:24:28;;;;;;;0.00;0.00;;;;;;;14.59;75.84;100390.19;7369968;19;20030;-62
2022/06/09 08:26:53;;;;;;;0.10;0.10;;;;;;;14.64;76.00;100381.19;7368401;19;20037;-63
2022/06/09 08:29:18;;;;;;;0.00;0.00;;;;;;;14.69;75.59;100370.47;7370795;19;20014;-63
2022/06/09 08:31:44;;;;;;;0.00;0.00;;;;;;;14.75;75.81;100386.84;7367657;19;20021;-63
2022/06/09 08:34:11;;;;;;;0.00;0.00;;;;;;;14.80;75.42;100386.63;7366565;19;20024;-63
2022/06/09 08:36:37;;;;;;;0.00;0.00;;;;;;;14.85;75.46;100383.78;7366664;19;20014;-64
2022/06/09 08:39:03;;;;;;;0.00;0.00;;;;;;;14.88;75.62;100375.75;7369441;19;20421;-64
2022/06/09 08:41:38;;;;;;;0.00;0.00;;;;;;;14.95;75.20;100374.53;7362582;19;21003;-62
2022/06/09 08:44:40;;;;;;;0.08;0.08;;;;;;;15.00;74.41;100367.28;7361257;19;20030;-63
2022/06/09 08:47:15;;;;;;;0.00;0.00;;;;;;;14.99;75.12;100360.34;7266905;19;2004542;-62
2022/06/09 08:50:05;;;;;;;0.00;0.00;;;;;;;15.07;74.49;100352.09;7369649;19;20017;-64
2022/06/09 08:52:52;;;;;;;0.00;0.00;;;;;;;15.12;74.09;100361.47;7365901;19;20031;-63
2022/06/09 08:55:18;;;;;;;0.00;0.00;;;;;;;15.10;75.42;100352.78;7367641;19;20037;-64
2022/06/09 08:57:45;;;;;;;0.00;0.00;;;;;;;15.16;75.43;100352.53;7369361;19;20082;-63
2022/06/09 09:00:13;;;;;;;0.10;0.10;;;;;;;15.20;75.21;100347.94;7367401;19;20017;-62
2022/06/09 09:02:43;;;;;;;0.00;0.00;;;;;;;15.24;75.60;100344.25;7366823;19;20007;-63
2022/06/09 09:05:26;;;;;;;0.00;0.00;;;;;;;15.29;74.64;100342.25;7368129;19;20530;-64
2022/06/09 09:07:59;;;;;;;0.10;0.10;;;;;;;15.31;75.42;100336.00;7369520;19;20010;-63
2022/06/09 09:10:47;;;;;;;0.00;0.00;;;;;;;15.38;73.69;100339.19;7368035;19;20335;-63
2022/06/09 09:13:19;;;;;;;0.00;0.00;;;;;;;15.39;74.52;100332.16;7366131;19;20006;-64
2022/06/09 09:15:50;;;;;;;0.00;0.00;;;;;;;15.41;74.80;100327.66;7369424;19;20905;-61
2022/06/09 09:18:35;;;;;;;0.00;0.00;;;;;;;15.44;73.98;100330.16;7369634;19;20005;-62
2022/06/09 09:21:27;;;;;;;0.00;0.00;;;;;;;15.47;73.34;100324.75;7368621;19;20003;-63
2022/06/09 09:24:24;;;;;;;0.00;0.00;;;;;;;15.49;73.83;100314.97;7264556;19;2004597;-64
2022/06/09 09:27:15;;;;;;;0.00;0.00;;;;;;;15.54;73.45;100315.59;7265745;19;2006141;-63
2022/06/09 09:29:46;;;;;;;0.00;0.00;;;;;;;15.58;74.20;100317.16;7369662;19;20523;-63
2022/06/09 09:32:18;;;;;;;0.00;0.00;;;;;;;15.61;74.84;100317.00;7364959;19;20422;-63
2022/06/09 09:34:47;;;;;;;0.00;0.00;;;;;;;15.69;75.02;100308.75;7363530;19;20011;-63
2022/06/09 09:37:43;;;;;;;0.00;0.00;;;;;;;15.78;72.95;100309.16;7366966;19;20454;-63
2022/06/09 09:40:19;;;;;;;0.00;0.00;;;;;;;15.82;73.52;100308.09;7266304;19;2004682;-63
2022/06/09 09:42:47;;;;;;;0.10;0.10;;;;;;;15.82;74.11;100304.59;7365283;19;20350;-63
2022/06/09 09:45:17;;;;;;;0.10;0.10;;;;;;;15.59;74.10;100255.69;7364248;19;20018;-63
2022/06/09 09:48:29;;;;;;;0.00;0.00;;;;;;;15.95;73.84;100294.28;7366764;19;20062;-63
2022/06/09 09:51:01;;;;;;;0.00;0.00;;;;;;;16.03;74.12;100302.66;7263408;19;2004440;-63
2022/06/09 09:53:40;;;;;;;0.00;0.00;;;;;;;16.10;73.72;100288.22;7365088;19;20521;-63
2022/06/09 09:56:18;;;;;;;0.00;0.00;;;;;;;16.10;74.33;100285.59;7364900;19;20010;-64
2022/06/09 09:58:46;;;;;;;;;;;;;;;16.20;72.60;100281.53;7365865;19;20006;-63
2022/06/09 10:01:14;;;;;;;0.00;0.00;;;;;;;16.22;74.01;100279.69;7364232;19;19942;-63
2022/06/09 10:09:30;;;;;;;0.00;0.00;;;;;;;16.37;74.48;100277.16;7262614;19;2004478;-61
2022/06/09 10:12:02;;;;;;;0.00;0.00;;;;;;;16.39;74.51;100272.66;7362192;19;20010;-63
2022/06/09 10:14:31;;;;;;;0.00;0.00;;;;;;;16.45;74.08;100265.25;7364342;19;20011;-64
2022/06/09 10:16:58;;;;;;;0.00;0.00;;;;;;;16.51;73.85;100266.72;7363051;19;20457;-64
2022/06/09 10:19:27;;;;;;;0.00;0.00;;;;;;;16.53;74.60;100256.97;7361978;19;20006;-63
2022/06/09 10:21:57;;;;;;;0.00;0.00;;;;;;;16.58;74.76;100265.47;7365075;19;20002;-64
2022/06/09 10:24:50;;;;;;;0.00;0.00;;;;;;;16.67;73.58;100254.41;7363564;19;20010;-63
2022/06/09 10:27:20;;;;;;;0.00;0.00;;;;;;;16.67;74.19;100262.31;7259671;19;2004427;-64
2022/06/09 10:29:55;;;;;;;0.10;0.10;;;;;;;16.76;73.80;100261.84;7363230;19;20075;-64
2022/06/09 10:32:30;;;;;;;0.00;0.00;;;;;;;16.80;74.08;100258.09;7363765;19;20082;-64
2022/06/09 10:35:46;;;;;;;0.00;0.00;;;;;;;16.86;73.01;100260.38;7364077;19;20039;-62
2022/06/09 10:38:20;;;;;;;0.00;0.00;;;;;;;16.90;74.03;100257.59;7261125;19;2004215;-63
2022/06/09 10:40:51;;;;;;;0.00;0.00;;;;;;;16.91;74.64;100259.28;7360722;19;20006;-63
2022/06/09 10:43:37;;;;;;;0.00;0.00;;;;;;;16.96;74.57;100257.25;7363776;19;20030;-62
2022/06/09 10:46:11;;;;;;;0.10;0.10;;;;;;;17.02;74.34;100241.91;7362648;19;20013;-63
2022/06/09 10:57:51;;;;;;;0.00;0.00;;;;;;;17.15;73.18;100231.53;7260189;19;2004473;-63
2022/06/09 11:00:30;;;;;;;0.00;0.00;;;;;;;17.16;74.58;100232.38;7260101;19;2004362;-62
2022/06/09 11:02:59;;;;;;;0.00;0.00;;;;;;;17.16;74.90;100222.66;7364221;19;20371;-64
2022/06/09 11:05:49;;;;;;;0.00;0.00;;;;;;;17.30;73.99;100221.88;7361063;19;20533;-63
2022/06/09 11:08:28;;;;;;;0.10;0.10;;;;;;;17.34;74.84;100211.06;7362800;19;20014;-64
2022/06/09 11:11:02;;;;;;;0.00;0.00;;;;;;;17.48;75.51;100217.28;7363989;19;20007;-63
2022/06/09 11:13:28;;;;;;;0.08;0.08;;;;;;;17.61;75.50;100223.56;7360758;19;20011;-63
2022/06/09 11:16:17;;;;;;;0.05;0.05;;;;;;;17.74;74.21;100213.13;7370273;19;20312;-63
2022/06/09 11:19:10;;;;;;;0.10;0.10;;;;;;;17.94;74.95;100217.22;7267603;19;2004151;-63
2022/06/09 11:22:02;;;;;;;0.00;0.00;;;;;;;18.13;74.80;100215.16;7266976;19;2004432;-63
2022/06/09 11:24:27;;;;;;;0.00;0.00;;;;;;;18.23;74.89;100205.69;7266520;19;2004321;-63
2022/06/09 11:27:23;;;;;;;0.00;0.00;;;;;;;18.42;73.36;100215.97;7371050;19;20091;-64
2022/06/09 11:29:54;;;;;;;0.00;0.00;;;;;;;18.42;74.00;100216.81;7267584;19;2004548;-63
2022/06/09 11:32:50;;;;;;;0.10;0.10;;;;;;;18.52;73.13;100213.59;7369115;19;20007;-63
2022/06/09 11:35:57;;;;;;;0.00;0.00;;;;;;;18.59;72.38;100212.25;7265593;19;2004386;-63
2022/06/09 11:38:36;;;;;;;;;;;;;;;18.62;71.48;100212.06;7267638;19;2004346;-63
2022/06/09 11:41:12;;;;;;;0.00;0.00;;;;;;;18.57;73.49;100209.72;7367893;19;19922;-63
2022/06/09 11:44:08;;;;;;;0.00;0.00;;;;;;;18.61;72.87;100215.66;7369239;19;20027;-63
2022/06/09 11:46:39;;;;;;;0.00;0.00;;;;;;;18.59;73.58;100212.25;7266277;19;2004439;-64
2022/06/09 11:49:19;;;;;;;0.10;0.10;;;;;;;18.62;73.28;100217.34;7363760;19;20465;-64
2022/06/09 11:51:45;;;;;;;0.00;0.00;;;;;;;18.58;73.83;100214.06;7368427;19;20489;-63
2022/06/09 11:54:35;;;;;;;0.08;0.08;;;;;;;18.70;73.15;100220.38;7366745;19;25459;-63
2022/06/09 11:57:16;;;;;;;0.08;0.08;;;;;;;18.77;73.73;100208.47;7264977;19;2004554;-64
2022/06/09 12:00:05;;;;;;;0.00;0.00;;;;;;;18.88;73.27;100203.34;7365713;19;20078;-62
2022/06/09 12:02:39;;;;;;;0.10;0.10;;;;;;;18.98;74.47;100206.22;7367460;19;20010;-63
2022/06/09 12:05:17;;;;;;;0.00;0.00;;;;;;;19.15;74.00;100195.38;7367957;19;20066;-63